createdAt,value
2017-08-06T00:00:15.146Z,28.7
2017-08-06T00:01:17.285Z,28.6
2017-08-06T00:02:19.418Z,28.7
2017-08-06T00:03:20.535Z,28.7
2017-08-06T00:04:22.662Z,28.7
2017-08-06T00:05:24.461Z,28.6
2017-08-06T00:06:26.591Z,28.7
2017-08-06T00:07:28.387Z,28.6
2017-08-06T00:08:30.523Z,28.6
2017-08-06T00:09:32.322Z,28.7
2017-08-06T00:10:34.118Z,28.6
2017-08-06T00:11:36.249Z,28.7
2017-08-06T00:12:37.695Z,28.5
2017-08-06T00:13:39.824Z,28.6
2017-08-06T00:14:41.953Z,28.7
2017-08-06T00:15:43.733Z,28.6
2017-08-06T00:16:45.530Z,28.6
2017-08-06T00:17:47.343Z,28.6
2017-08-06T00:18:49.143Z,28.6
2017-08-06T00:19:50.944Z,28.6
2017-08-06T00:20:52.744Z,28.6
2017-08-06T00:21:54.877Z,28.6
2017-08-06T00:22:56.652Z,28.5
2017-08-06T00:23:58.780Z,28.6
2017-08-06T00:25:00.577Z,28.6
2017-08-06T00:26:02.024Z,28.6
2017-08-06T00:27:03.820Z,28.6
2017-08-06T00:28:05.288Z,28.6
2017-08-06T00:29:07.420Z,28.6
2017-08-06T00:30:09.220Z,28.6
2017-08-06T00:31:11.020Z,28.6
2017-08-06T00:32:12.822Z,28.6
2017-08-06T00:33:14.619Z,28.6
2017-08-06T00:34:16.758Z,28.7
2017-08-06T00:35:18.892Z,28.7
2017-08-06T00:36:20.706Z,28.6
2017-08-06T00:37:22.506Z,28.6
2017-08-06T00:38:24.633Z,28.6
2017-08-06T00:39:26.765Z,28.6
2017-08-06T00:40:28.563Z,28.6
2017-08-06T00:41:30.726Z,28.6
2017-08-06T00:42:32.526Z,28.6
2017-08-06T00:43:34.657Z,28.7
2017-08-06T00:44:36.787Z,28.6
2017-08-06T00:45:38.918Z,28.6
2017-08-06T00:46:40.719Z,28.7
2017-08-06T00:47:42.169Z,28.6
2017-08-06T00:48:44.299Z,28.6
2017-08-06T00:49:46.095Z,28.7
2017-08-06T00:50:48.226Z,28.6
2017-08-06T00:51:50.360Z,28.6
2017-08-06T00:52:52.163Z,28.6
2017-08-06T00:53:54.294Z,28.6
2017-08-06T00:54:56.424Z,28.6
2017-08-06T00:55:58.224Z,28.6
2017-08-06T00:57:00.355Z,28.6
2017-08-06T00:58:02.214Z,28.6
2017-08-06T00:59:04.341Z,28.6
2017-08-06T01:00:06.140Z,28.6
2017-08-06T01:01:08.270Z,28.6
2017-08-06T01:02:10.404Z,28.6
2017-08-06T01:03:11.871Z,28.5
2017-08-06T01:04:13.317Z,28.6
2017-08-06T01:05:15.117Z,28.6
2017-08-06T01:06:17.247Z,28.6
2017-08-06T01:07:18.716Z,28.6
2017-08-06T01:08:20.217Z,28.6
2017-08-06T01:09:22.351Z,28.6
2017-08-06T01:10:24.479Z,28.6
2017-08-06T01:11:26.271Z,28.6
2017-08-06T01:12:28.071Z,28.6
2017-08-06T01:13:29.518Z,28.6
2017-08-06T01:14:31.659Z,28.6
2017-08-06T01:15:33.445Z,28.6
2017-08-06T01:16:35.575Z,28.6
2017-08-06T01:17:37.371Z,28.6
2017-08-06T01:18:38.817Z,28.5
2017-08-06T01:19:40.948Z,28.5
2017-08-06T01:20:42.389Z,28.5
2017-08-06T01:21:44.524Z,28.5
2017-08-06T01:22:46.657Z,28.5
2017-08-06T01:23:48.790Z,28.6
2017-08-06T01:24:50.918Z,28.6
2017-08-06T01:25:52.709Z,28.6
2017-08-06T01:26:54.482Z,28.6
2017-08-06T01:27:56.279Z,28.5
2017-08-06T01:28:57.745Z,28.6
2017-08-06T01:29:59.543Z,28.6
2017-08-06T01:31:01.321Z,28.6
2017-08-06T01:32:03.452Z,28.6
2017-08-06T01:33:05.236Z,28.5
2017-08-06T01:34:07.028Z,28.5
2017-08-06T01:35:08.470Z,28.5
2017-08-06T01:36:10.268Z,28.6
2017-08-06T01:37:11.709Z,28.5
2017-08-06T01:38:13.841Z,28.5
2017-08-06T01:39:15.626Z,28.6
2017-08-06T01:40:17.449Z,28.5
2017-08-06T01:41:19.600Z,28.5
2017-08-06T01:42:21.728Z,28.5
2017-08-06T01:43:23.527Z,28.6
2017-08-06T01:44:25.330Z,28.5
2017-08-06T01:45:27.127Z,28.5
2017-08-06T01:46:29.258Z,28.5
2017-08-06T01:47:31.060Z,28.5
2017-08-06T01:48:32.528Z,28.5
2017-08-06T01:49:33.994Z,28.5
2017-08-06T01:50:36.124Z,28.5
2017-08-06T01:51:37.900Z,28.5
2017-08-06T01:52:40.033Z,28.5
2017-08-06T01:53:42.158Z,28.5
2017-08-06T01:54:44.290Z,28.5
2017-08-06T01:55:46.088Z,28.5
2017-08-06T01:56:47.891Z,28.5
2017-08-06T01:57:50.022Z,28.5
2017-08-06T01:58:51.822Z,28.5
2017-08-06T01:59:53.618Z,28.6
2017-08-06T02:00:55.422Z,28.5
2017-08-06T02:01:57.551Z,28.5
2017-08-06T02:02:59.682Z,28.5
2017-08-06T02:04:01.830Z,28.5
2017-08-06T02:05:03.962Z,28.5
2017-08-06T02:06:05.762Z,28.5
2017-08-06T02:07:07.566Z,28.5
2017-08-06T02:08:09.695Z,28.5
2017-08-06T02:09:11.826Z,28.5
2017-08-06T02:10:12.961Z,28.5
2017-08-06T02:11:14.802Z,28.5
2017-08-06T02:12:16.262Z,28.5
2017-08-06T02:13:18.397Z,28.4
2017-08-06T02:14:20.525Z,28.5
2017-08-06T02:15:21.317Z,28.5
2017-08-06T02:16:23.449Z,28.5
2017-08-06T02:17:24.896Z,28.5
2017-08-06T02:18:26.695Z,28.4
2017-08-06T02:19:28.837Z,28.5
2017-08-06T02:20:30.277Z,28.5
2017-08-06T02:21:32.084Z,28.4
2017-08-06T02:22:34.208Z,28.5
2017-08-06T02:23:35.658Z,28.4
2017-08-06T02:24:37.788Z,28.4
2017-08-06T02:25:39.588Z,28.4
2017-08-06T02:26:41.386Z,28.4
2017-08-06T02:27:43.189Z,28.4
2017-08-06T02:28:45.320Z,28.5
2017-08-06T02:29:47.452Z,28.5
2017-08-06T02:30:49.583Z,28.4
2017-08-06T02:31:51.382Z,28.5
2017-08-06T02:32:53.158Z,28.4
2017-08-06T02:33:54.958Z,28.5
2017-08-06T02:34:57.087Z,28.5
2017-08-06T02:35:58.865Z,28.4
2017-08-06T02:37:00.335Z,28.4
2017-08-06T02:38:02.466Z,28.4
2017-08-06T02:39:04.263Z,28.4
2017-08-06T02:40:05.731Z,28.4
2017-08-06T02:41:07.880Z,28.4
2017-08-06T02:42:09.670Z,28.5
2017-08-06T02:43:11.111Z,28.4
2017-08-06T02:44:12.909Z,28.4
2017-08-06T02:45:14.708Z,28.4
2017-08-06T02:46:16.507Z,28.4
2017-08-06T02:47:18.637Z,28.3
2017-08-06T02:48:20.437Z,28.4
2017-08-06T02:49:21.902Z,28.4
2017-08-06T02:50:24.036Z,28.4
2017-08-06T02:51:26.161Z,28.4
2017-08-06T02:52:27.960Z,28.4
2017-08-06T02:53:30.089Z,28.4
2017-08-06T02:54:31.889Z,28.4
2017-08-06T02:55:34.020Z,28.4
2017-08-06T02:56:36.151Z,28.4
2017-08-06T02:57:38.280Z,28.5
2017-08-06T02:58:40.412Z,28.4
2017-08-06T02:59:41.525Z,28.4
2017-08-06T03:00:43.713Z,28.4
2017-08-06T03:01:45.848Z,28.4
2017-08-06T03:02:47.976Z,28.4
2017-08-06T03:03:50.106Z,28.3
2017-08-06T03:04:51.903Z,28.4
2017-08-06T03:05:53.045Z,28.3
2017-08-06T03:06:54.843Z,28.3
2017-08-06T03:07:56.642Z,28.4
2017-08-06T03:08:58.807Z,28.3
2017-08-06T03:10:00.941Z,28.4
2017-08-06T03:11:02.737Z,28.3
2017-08-06T03:12:04.515Z,28.4
2017-08-06T03:13:06.312Z,28.4
2017-08-06T03:14:08.444Z,28.3
2017-08-06T03:15:10.298Z,28.4
2017-08-06T03:16:11.762Z,28.4
2017-08-06T03:17:13.562Z,28.3
2017-08-06T03:18:15.690Z,28.4
2017-08-06T03:19:17.487Z,28.3
2017-08-06T03:20:19.616Z,28.4
2017-08-06T03:21:21.753Z,28.3
2017-08-06T03:22:23.877Z,28.3
2017-08-06T03:23:25.326Z,28.4
2017-08-06T03:24:26.792Z,28.4
2017-08-06T03:25:28.566Z,28.4
2017-08-06T03:26:30.345Z,28.4
2017-08-06T03:27:32.145Z,28.3
2017-08-06T03:28:34.279Z,28.3
2017-08-06T03:29:36.057Z,28.3
2017-08-06T03:30:37.853Z,28.3
2017-08-06T03:31:39.981Z,28.4
2017-08-06T03:32:42.109Z,28.4
2017-08-06T03:33:43.911Z,28.3
2017-08-06T03:34:45.711Z,28.3
2017-08-06T03:35:47.841Z,28.4
2017-08-06T03:36:49.289Z,28.4
2017-08-06T03:37:51.422Z,28.4
2017-08-06T03:38:52.896Z,28.4
2017-08-06T03:39:54.695Z,28.4
2017-08-06T03:40:56.826Z,28.3
2017-08-06T03:41:58.623Z,28.3
2017-08-06T03:43:00.406Z,28.4
2017-08-06T03:44:01.896Z,28.3
2017-08-06T03:45:03.701Z,28.4
2017-08-06T03:46:05.173Z,28.4
2017-08-06T03:47:06.967Z,28.3
2017-08-06T03:48:08.417Z,28.4
2017-08-06T03:49:09.894Z,28.3
2017-08-06T03:50:11.029Z,28.4
2017-08-06T03:51:12.827Z,28.4
2017-08-06T03:52:14.959Z,28.4
2017-08-06T03:53:16.762Z,28.4
2017-08-06T03:54:17.877Z,28.4
2017-08-06T03:55:19.350Z,28.4
2017-08-06T03:56:21.144Z,28.3
2017-08-06T03:57:22.945Z,28.4
2017-08-06T03:58:24.737Z,28.4
2017-08-06T03:59:26.866Z,28.3
2017-08-06T04:00:28.312Z,28.4
2017-08-06T04:01:29.757Z,28.4
2017-08-06T04:02:31.885Z,28.4
2017-08-06T04:03:33.680Z,28.4
2017-08-06T04:04:35.816Z,28.4
2017-08-06T04:05:37.619Z,28.4
2017-08-06T04:06:39.090Z,28.3
2017-08-06T04:07:40.895Z,28.4
2017-08-06T04:08:42.692Z,28.3
2017-08-06T04:09:44.490Z,28.4
2017-08-06T04:10:46.287Z,28.4
2017-08-06T04:11:48.418Z,28.4
2017-08-06T04:12:50.219Z,28.3
2017-08-06T04:13:52.350Z,28.4
2017-08-06T04:14:54.480Z,28.4
2017-08-06T04:15:56.616Z,28.3
2017-08-06T04:16:58.409Z,28.4
2017-08-06T04:18:00.183Z,28.4
2017-08-06T04:19:01.651Z,28.4
2017-08-06T04:20:03.785Z,28.4
2017-08-06T04:21:05.580Z,28.4
2017-08-06T04:22:07.716Z,28.3
2017-08-06T04:23:09.493Z,28.4
2017-08-06T04:24:11.623Z,28.3
2017-08-06T04:25:13.755Z,28.4
2017-08-06T04:26:15.558Z,28.4
2017-08-06T04:27:17.356Z,28.4
2017-08-06T04:28:19.488Z,28.4
2017-08-06T04:29:21.286Z,28.4
2017-08-06T04:30:23.421Z,28.4
2017-08-06T04:31:25.553Z,28.4
2017-08-06T04:32:27.352Z,28.3
2017-08-06T04:33:29.153Z,28.4
2017-08-06T04:34:30.958Z,28.4
2017-08-06T04:35:32.402Z,28.4
2017-08-06T04:36:33.874Z,28.4
2017-08-06T04:37:35.328Z,28.3
2017-08-06T04:38:37.130Z,28.4
2017-08-06T04:39:38.925Z,28.4
2017-08-06T04:40:40.407Z,28.4
2017-08-06T04:41:41.861Z,28.3
2017-08-06T04:42:42.997Z,28.3
2017-08-06T04:43:45.129Z,28.4
2017-08-06T04:44:46.934Z,28.4
2017-08-06T04:45:48.379Z,28.4
2017-08-06T04:46:50.186Z,28.4
2017-08-06T04:47:51.985Z,28.4
2017-08-06T04:48:53.786Z,28.3
2017-08-06T04:49:55.587Z,28.4
2017-08-06T04:50:57.386Z,28.4
2017-08-06T04:51:59.515Z,28.4
2017-08-06T04:53:01.323Z,28.4
2017-08-06T04:54:03.459Z,28.3
2017-08-06T04:55:05.593Z,28.4
2017-08-06T04:56:07.392Z,28.4
2017-08-06T04:57:09.526Z,28.3
2017-08-06T04:58:11.657Z,28.4
2017-08-06T04:59:13.108Z,28.4
2017-08-06T05:00:14.885Z,28.3
2017-08-06T05:01:17.016Z,28.4
2017-08-06T05:02:18.130Z,28.4
2017-08-06T05:03:19.911Z,28.3
2017-08-06T05:04:22.040Z,28.4
2017-08-06T05:05:23.843Z,28.4
2017-08-06T05:06:25.973Z,28.3
2017-08-06T05:07:27.778Z,28.4
2017-08-06T05:08:29.577Z,28.4
2017-08-06T05:09:31.710Z,28.4
2017-08-06T05:10:33.507Z,28.3
2017-08-06T05:11:35.638Z,28.5
2017-08-06T05:12:37.108Z,28.3
2017-08-06T05:13:38.906Z,28.4
2017-08-06T05:14:40.682Z,28.4
2017-08-06T05:15:42.813Z,28.4
2017-08-06T05:16:44.594Z,28.4
2017-08-06T05:17:46.728Z,28.4
2017-08-06T05:18:48.527Z,28.4
2017-08-06T05:19:50.329Z,28.3
2017-08-06T05:20:52.464Z,28.4
2017-08-06T05:21:54.265Z,28.4
2017-08-06T05:22:55.378Z,28.4
2017-08-06T05:23:57.507Z,28.4
2017-08-06T05:24:59.280Z,28.4
2017-08-06T05:26:01.414Z,28.4
2017-08-06T05:27:03.546Z,28.4
2017-08-06T05:28:05.343Z,28.3
2017-08-06T05:29:06.792Z,28.4
2017-08-06T05:30:08.252Z,28.4
2017-08-06T05:31:09.697Z,28.4
2017-08-06T05:32:11.148Z,28.4
2017-08-06T05:33:12.596Z,28.3
2017-08-06T05:34:14.396Z,28.3
2017-08-06T05:35:16.527Z,28.4
2017-08-06T05:36:18.329Z,28.4
2017-08-06T05:37:20.462Z,28.3
2017-08-06T05:38:22.263Z,28.4
2017-08-06T05:39:24.063Z,28.4
2017-08-06T05:40:26.193Z,28.4
2017-08-06T05:41:27.662Z,28.4
2017-08-06T05:42:29.792Z,28.4
2017-08-06T05:43:30.899Z,28.4
2017-08-06T05:44:32.699Z,28.3
2017-08-06T05:45:34.498Z,28.3
2017-08-06T05:46:36.628Z,28.3
2017-08-06T05:47:38.070Z,28.3
2017-08-06T05:48:40.203Z,28.3
2017-08-06T05:49:41.672Z,28.3
2017-08-06T05:50:43.804Z,28.4
2017-08-06T05:51:45.601Z,28.4
2017-08-06T05:52:47.734Z,28.3
2017-08-06T05:53:49.182Z,28.4
2017-08-06T05:54:51.310Z,28.3
2017-08-06T05:55:53.438Z,28.3
2017-08-06T05:56:54.887Z,28.5
2017-08-06T05:57:56.353Z,28.4
2017-08-06T05:58:58.156Z,28.4
2017-08-06T05:59:59.623Z,28.4
2017-08-06T06:01:01.754Z,28.4
2017-08-06T06:02:03.225Z,28.3
2017-08-06T06:03:04.675Z,28.4
2017-08-06T06:04:06.811Z,28.4
2017-08-06T06:05:08.585Z,28.4
2017-08-06T06:06:10.722Z,28.4
2017-08-06T06:07:12.956Z,28.4
2017-08-06T06:08:15.089Z,28.5
2017-08-06T06:09:16.896Z,28.5
2017-08-06T06:10:19.027Z,28.5
2017-08-06T06:11:21.160Z,28.6
2017-08-06T06:12:22.959Z,28.6
2017-08-06T06:13:25.095Z,28.6
2017-08-06T06:14:26.875Z,28.6
2017-08-06T06:15:28.669Z,28.7
2017-08-06T06:16:29.781Z,28.6
2017-08-06T06:17:31.912Z,28.6
2017-08-06T06:18:34.048Z,28.7
2017-08-06T06:19:36.182Z,28.7
2017-08-06T06:20:38.325Z,28.6
2017-08-06T06:21:40.104Z,28.8
2017-08-06T06:22:42.243Z,28.8
2017-08-06T06:23:44.042Z,28.8
2017-08-06T06:24:46.175Z,28.8
2017-08-06T06:25:47.977Z,28.8
2017-08-06T06:26:50.128Z,28.8
2017-08-06T06:27:52.258Z,28.8
2017-08-06T06:28:54.399Z,28.8
2017-08-06T06:29:56.536Z,28.7
2017-08-06T06:30:58.668Z,28.8
2017-08-06T06:32:00.136Z,28.8
2017-08-06T06:33:01.991Z,28.8
2017-08-06T06:34:03.775Z,28.8
2017-08-06T06:35:05.551Z,28.8
2017-08-06T06:36:07.356Z,28.8
2017-08-06T06:37:08.807Z,28.8
2017-08-06T06:38:10.257Z,28.9
2017-08-06T06:39:11.704Z,28.9
2017-08-06T06:40:13.506Z,28.9
2017-08-06T06:41:15.305Z,28.9
2017-08-06T06:42:16.787Z,28.9
2017-08-06T06:43:18.253Z,28.8
2017-08-06T06:44:20.386Z,28.9
2017-08-06T06:45:22.185Z,28.9
2017-08-06T06:46:24.316Z,28.9
2017-08-06T06:47:26.129Z,28.9
2017-08-06T06:48:28.253Z,29
2017-08-06T06:49:30.061Z,29
2017-08-06T06:50:32.194Z,28.9
2017-08-06T06:51:34.327Z,28.9
2017-08-06T06:52:35.793Z,29
2017-08-06T06:53:37.243Z,29
2017-08-06T06:54:38.724Z,29
2017-08-06T06:55:40.519Z,29
2017-08-06T06:56:42.319Z,29
2017-08-06T06:57:44.454Z,29
2017-08-06T06:58:46.591Z,29
2017-08-06T06:59:48.388Z,29
2017-08-06T07:00:50.189Z,29
2017-08-06T07:01:51.994Z,29
2017-08-06T07:02:54.132Z,29
2017-08-06T07:03:55.578Z,29
2017-08-06T07:04:57.048Z,29
2017-08-06T07:05:59.184Z,29
2017-08-06T07:07:00.988Z,29
2017-08-06T07:08:02.801Z,29
2017-08-06T07:09:04.593Z,29.1
2017-08-06T07:10:06.726Z,29
2017-08-06T07:11:08.197Z,29.1
2017-08-06T07:12:09.977Z,29
2017-08-06T07:13:11.423Z,29
2017-08-06T07:14:13.203Z,29.1
2017-08-06T07:15:14.659Z,29
2017-08-06T07:16:16.800Z,29.1
2017-08-06T07:17:18.604Z,29
2017-08-06T07:18:20.735Z,29
2017-08-06T07:19:22.184Z,29.1
2017-08-06T07:20:23.982Z,29.1
2017-08-06T07:21:26.116Z,29
2017-08-06T07:22:28.253Z,29.1
2017-08-06T07:23:30.382Z,29
2017-08-06T07:24:32.517Z,29
2017-08-06T07:25:34.651Z,29.1
2017-08-06T07:26:36.788Z,29
2017-08-06T07:27:37.920Z,29
2017-08-06T07:28:39.721Z,29.1
2017-08-06T07:29:41.525Z,29.1
2017-08-06T07:30:43.655Z,29.1
2017-08-06T07:31:45.110Z,29.1
2017-08-06T07:32:47.244Z,29.1
2017-08-06T07:33:49.377Z,29.1
2017-08-06T07:34:51.510Z,29.1
2017-08-06T07:35:53.293Z,29
2017-08-06T07:36:55.081Z,29.1
2017-08-06T07:37:56.537Z,29.1
2017-08-06T07:38:58.340Z,29.1
2017-08-06T07:40:00.138Z,29.1
2017-08-06T07:41:01.276Z,29.1
2017-08-06T07:42:02.732Z,29.1
2017-08-06T07:43:04.529Z,29.1
2017-08-06T07:44:06.662Z,29.1
2017-08-06T07:45:08.109Z,29.1
2017-08-06T07:46:09.910Z,29.1
2017-08-06T07:47:11.716Z,29.1
2017-08-06T07:48:13.513Z,29.1
2017-08-06T07:49:15.315Z,29.1
2017-08-06T07:50:17.553Z,29.1
2017-08-06T07:51:19.332Z,29
2017-08-06T07:52:21.125Z,29.1
2017-08-06T07:53:23.252Z,29.1
2017-08-06T07:54:25.388Z,29
2017-08-06T07:55:27.190Z,29.1
2017-08-06T07:56:28.992Z,29.1
2017-08-06T07:57:30.796Z,29.1
2017-08-06T07:58:32.240Z,29.1
2017-08-06T07:59:34.380Z,29.1
2017-08-06T08:00:35.856Z,29.1
2017-08-06T08:01:37.992Z,29.1
2017-08-06T08:02:39.807Z,29.1
2017-08-06T08:03:41.944Z,29.1
2017-08-06T08:04:43.747Z,29.1
2017-08-06T08:05:45.549Z,29.2
2017-08-06T08:06:47.353Z,29.1
2017-08-06T08:07:49.487Z,29.1
2017-08-06T08:08:51.623Z,29.2
2017-08-06T08:09:53.403Z,29.2
2017-08-06T08:10:55.538Z,29.2
2017-08-06T08:11:56.982Z,29.2
2017-08-06T08:12:58.786Z,29.2
2017-08-06T08:14:00.587Z,29.2
2017-08-06T08:15:02.391Z,29.2
2017-08-06T08:16:03.858Z,29.2
2017-08-06T08:17:05.309Z,29.2
2017-08-06T08:18:07.114Z,29.1
2017-08-06T08:19:08.893Z,29.2
2017-08-06T08:20:11.024Z,29.2
2017-08-06T08:21:13.156Z,29.2
2017-08-06T08:22:14.959Z,29.2
2017-08-06T08:23:17.093Z,29.2
2017-08-06T08:24:18.542Z,29.2
2017-08-06T08:25:20.339Z,29.2
2017-08-06T08:26:22.483Z,29.1
2017-08-06T08:27:24.288Z,29.3
2017-08-06T08:28:26.068Z,29.2
2017-08-06T08:29:27.872Z,29.2
2017-08-06T08:30:28.983Z,29.1
2017-08-06T08:31:30.785Z,29.2
2017-08-06T08:32:32.919Z,29.2
2017-08-06T08:33:34.371Z,29.2
2017-08-06T08:34:36.143Z,29.2
2017-08-06T08:35:38.278Z,29.2
2017-08-06T08:36:40.076Z,29.2
2017-08-06T08:37:42.209Z,29.2
2017-08-06T08:38:44.010Z,29.2
2017-08-06T08:39:45.459Z,29.2
2017-08-06T08:40:47.261Z,29.2
2017-08-06T08:41:49.043Z,29.2
2017-08-06T08:42:50.509Z,29.2
2017-08-06T08:43:52.642Z,29.2
2017-08-06T08:44:54.773Z,29.2
2017-08-06T08:45:55.892Z,29.1
2017-08-06T08:46:57.692Z,29.2
2017-08-06T08:47:59.499Z,29.2
2017-08-06T08:49:00.613Z,29.2
2017-08-06T08:50:01.761Z,29.2
2017-08-06T08:51:03.560Z,29.2
2017-08-06T08:52:05.697Z,29.2
2017-08-06T08:53:07.503Z,29.2
2017-08-06T08:54:09.298Z,29.2
2017-08-06T08:55:11.077Z,29.2
2017-08-06T08:56:12.869Z,29.2
2017-08-06T08:57:14.998Z,29.2
2017-08-06T08:58:17.130Z,29.2
2017-08-06T08:59:18.591Z,29.3
2017-08-06T09:00:20.398Z,29.3
2017-08-06T09:01:22.530Z,29.2
2017-08-06T09:02:23.978Z,29.2
2017-08-06T09:03:26.111Z,29.2
2017-08-06T09:04:27.913Z,29.3
2017-08-06T09:05:29.692Z,29.2
2017-08-06T09:06:31.825Z,29.2
2017-08-06T09:07:33.271Z,29.2
2017-08-06T09:08:34.407Z,29.2
2017-08-06T09:09:36.202Z,29.2
2017-08-06T09:10:38.010Z,29.3
2017-08-06T09:11:40.141Z,29.2
2017-08-06T09:12:41.945Z,29.2
2017-08-06T09:13:43.388Z,29.2
2017-08-06T09:14:45.207Z,29.2
2017-08-06T09:15:47.005Z,29.3
2017-08-06T09:16:48.805Z,29.2
2017-08-06T09:17:50.250Z,29.3
2017-08-06T09:18:52.394Z,29.2
2017-08-06T09:19:54.532Z,29.2
2017-08-06T09:20:56.665Z,29.2
2017-08-06T09:21:58.444Z,29.3
2017-08-06T09:22:59.922Z,29.2
2017-08-06T09:24:01.405Z,29.2
2017-08-06T09:25:02.891Z,29.3
2017-08-06T09:26:04.716Z,29.2
2017-08-06T09:27:06.934Z,29.3
2017-08-06T09:28:08.736Z,29.2
2017-08-06T09:29:10.513Z,29.2
2017-08-06T09:30:11.986Z,29.3
2017-08-06T09:31:13.439Z,29.2
2017-08-06T09:32:15.679Z,29.2
2017-08-06T09:33:17.479Z,29.3
2017-08-06T09:34:19.635Z,29.3
2017-08-06T09:35:21.434Z,29.2
2017-08-06T09:36:23.232Z,29.3
2017-08-06T09:37:25.034Z,29.2
2017-08-06T09:38:26.849Z,29.3
2017-08-06T09:39:28.285Z,29.2
2017-08-06T09:40:30.084Z,29.2
2017-08-06T09:41:31.864Z,29.3
2017-08-06T09:42:33.647Z,29.2
2017-08-06T09:43:35.446Z,29.3
2017-08-06T09:44:37.224Z,29.3
2017-08-06T09:45:39.028Z,29.2
2017-08-06T09:46:41.161Z,29.3
2017-08-06T09:47:43.295Z,29.3
2017-08-06T09:48:45.431Z,29.3
2017-08-06T09:49:46.879Z,29.3
2017-08-06T09:50:48.321Z,29.3
2017-08-06T09:51:50.456Z,29.3
2017-08-06T09:52:52.260Z,29.3
2017-08-06T09:53:54.067Z,29.3
2017-08-06T09:54:55.512Z,29.3
2017-08-06T09:55:57.297Z,29.3
2017-08-06T09:56:59.098Z,29.2
2017-08-06T09:58:00.900Z,29.3
2017-08-06T09:59:02.349Z,29.3
2017-08-06T10:00:04.130Z,29.3
2017-08-06T10:01:06.260Z,29.3
2017-08-06T10:02:07.404Z,29.3
2017-08-06T10:03:09.540Z,29.3
2017-08-06T10:04:11.340Z,29.3
2017-08-06T10:05:12.464Z,29.3
2017-08-06T10:06:13.936Z,29.3
2017-08-06T10:07:16.071Z,29.3
2017-08-06T10:08:18.202Z,29.3
2017-08-06T10:09:19.981Z,29.3
2017-08-06T10:10:22.109Z,29.3
2017-08-06T10:11:23.913Z,29.3
2017-08-06T10:12:25.696Z,29.3
2017-08-06T10:13:27.166Z,29.3
2017-08-06T10:14:29.302Z,29.3
2017-08-06T10:15:31.434Z,29.4
2017-08-06T10:16:33.213Z,29.3
2017-08-06T10:17:35.015Z,29.3
2017-08-06T10:18:36.813Z,29.3
2017-08-06T10:19:38.617Z,29.3
2017-08-06T10:20:40.757Z,29.2
2017-08-06T10:21:42.555Z,29.2
2017-08-06T10:22:43.671Z,29.3
2017-08-06T10:23:45.806Z,29.3
2017-08-06T10:24:47.938Z,29.3
2017-08-06T10:25:49.743Z,29.4
2017-08-06T10:26:51.549Z,29.3
2017-08-06T10:27:53.682Z,29.3
2017-08-06T10:28:55.814Z,29.3
2017-08-06T10:29:57.612Z,29.3
2017-08-06T10:30:59.415Z,29.3
2017-08-06T10:32:00.885Z,29.3
2017-08-06T10:33:02.688Z,29.3
2017-08-06T10:34:04.823Z,29.3
2017-08-06T10:35:05.942Z,29.4
2017-08-06T10:36:07.406Z,29.3
2017-08-06T10:37:09.207Z,29.3
2017-08-06T10:38:11.009Z,29.3
2017-08-06T10:39:12.558Z,29.3
2017-08-06T10:40:13.994Z,29.3
2017-08-06T10:41:15.448Z,29.3
2017-08-06T10:42:16.559Z,29.3
2017-08-06T10:43:18.030Z,29.3
2017-08-06T10:44:19.812Z,29.3
2017-08-06T10:45:21.614Z,29.3
2017-08-06T10:46:23.393Z,29.3
2017-08-06T10:47:24.862Z,29.2
2017-08-06T10:48:26.664Z,29.3
2017-08-06T10:49:28.470Z,29.3
2017-08-06T10:50:30.274Z,29.4
2017-08-06T10:51:31.717Z,29.3
2017-08-06T10:52:33.521Z,29.3
2017-08-06T10:53:35.650Z,29.3
2017-08-06T10:54:37.427Z,29.3
2017-08-06T10:55:39.563Z,29.3
2017-08-06T10:56:41.034Z,29.3
2017-08-06T10:57:42.816Z,29.3
2017-08-06T10:58:44.954Z,29.3
2017-08-06T10:59:47.090Z,29.3
2017-08-06T11:00:49.220Z,29.3
2017-08-06T11:01:50.686Z,29.3
2017-08-06T11:02:52.484Z,29.4
2017-08-06T11:03:54.619Z,29.3
2017-08-06T11:04:56.112Z,29.3
2017-08-06T11:05:57.586Z,29.3
2017-08-06T11:06:59.720Z,29.4
2017-08-06T11:08:01.524Z,29.3
2017-08-06T11:09:03.656Z,29.3
2017-08-06T11:10:05.811Z,29.4
2017-08-06T11:11:07.617Z,29.4
2017-08-06T11:12:09.398Z,29.3
2017-08-06T11:13:11.197Z,29.4
2017-08-06T11:14:12.657Z,29.4
2017-08-06T11:15:14.460Z,29.4
2017-08-06T11:16:16.261Z,29.4
2017-08-06T11:17:18.405Z,29.4
2017-08-06T11:18:19.511Z,29.3
2017-08-06T11:19:21.646Z,29.5
2017-08-06T11:20:23.420Z,29.4
2017-08-06T11:21:25.559Z,29.4
2017-08-06T11:22:27.356Z,29.5
2017-08-06T11:23:29.491Z,29.4
2017-08-06T11:24:30.965Z,29.4
2017-08-06T11:25:32.413Z,29.3
2017-08-06T11:26:34.206Z,29.4
2017-08-06T11:27:36.006Z,29.4
2017-08-06T11:28:38.143Z,29.4
2017-08-06T11:29:39.946Z,29.4
2017-08-06T11:30:41.750Z,29.4
2017-08-06T11:31:43.217Z,29.4
2017-08-06T11:32:45.023Z,29.4
2017-08-06T11:33:46.489Z,29.4
2017-08-06T11:34:48.621Z,29.4
2017-08-06T11:35:50.757Z,29.4
2017-08-06T11:36:52.890Z,29.3
2017-08-06T11:37:54.671Z,29.4
2017-08-06T11:38:56.467Z,29.4
2017-08-06T11:39:57.938Z,29.4
2017-08-06T11:40:59.402Z,29.4
2017-08-06T11:42:01.205Z,29.4
2017-08-06T11:43:02.678Z,29.3
2017-08-06T11:44:04.495Z,29.4
2017-08-06T11:45:06.273Z,29.4
2017-08-06T11:46:08.077Z,29.4
2017-08-06T11:47:09.877Z,29.4
2017-08-06T11:48:12.009Z,29.4
2017-08-06T11:49:14.142Z,29.4
2017-08-06T11:50:16.271Z,29.3
2017-08-06T11:51:17.712Z,29.4
2017-08-06T11:52:19.516Z,29.3
2017-08-06T11:53:21.288Z,29.3
2017-08-06T11:54:23.070Z,29.4
2017-08-06T11:55:24.877Z,29.3
2017-08-06T11:56:27.007Z,29.3
2017-08-06T11:57:28.806Z,29.3
2017-08-06T11:58:30.252Z,29.3
2017-08-06T11:59:32.387Z,29.3
2017-08-06T12:00:33.864Z,29.3
2017-08-06T12:01:35.644Z,29.3
2017-08-06T12:02:37.794Z,29.3
2017-08-06T12:03:39.915Z,29.3
2017-08-06T12:04:42.047Z,29.3
2017-08-06T12:05:44.179Z,29.3
2017-08-06T12:06:45.649Z,29.3
2017-08-06T12:07:47.790Z,29.3
2017-08-06T12:08:49.568Z,29.3
2017-08-06T12:09:51.015Z,29.3
2017-08-06T12:10:52.816Z,29.3
2017-08-06T12:11:54.950Z,29.4
2017-08-06T12:12:56.398Z,29.4
2017-08-06T12:13:58.202Z,29.3
2017-08-06T12:14:59.980Z,29.3
2017-08-06T12:16:01.786Z,29.3
2017-08-06T12:17:03.567Z,29.3
2017-08-06T12:18:05.364Z,29.3
2017-08-06T12:19:07.498Z,29.4
2017-08-06T12:20:09.279Z,29.4
2017-08-06T12:21:11.081Z,29.3
2017-08-06T12:22:12.603Z,29.4
2017-08-06T12:23:14.381Z,29.4
2017-08-06T12:24:15.865Z,29.3
2017-08-06T12:25:17.645Z,29.4
2017-08-06T12:26:19.085Z,29.4
2017-08-06T12:27:20.863Z,29.4
2017-08-06T12:28:22.999Z,29.4
2017-08-06T12:29:25.136Z,29.4
2017-08-06T12:30:27.268Z,29.4
2017-08-06T12:31:29.406Z,29.4
2017-08-06T12:32:31.205Z,29.4
2017-08-06T12:33:32.988Z,29.4
2017-08-06T12:34:35.121Z,29.4
2017-08-06T12:35:36.232Z,29.4
2017-08-06T12:36:38.031Z,29.4
2017-08-06T12:37:39.808Z,29.4
2017-08-06T12:38:41.587Z,29.4
2017-08-06T12:39:43.391Z,29.4
2017-08-06T12:40:45.194Z,29.5
2017-08-06T12:41:46.665Z,29.5
2017-08-06T12:42:48.801Z,29.5
2017-08-06T12:43:50.934Z,29.4
2017-08-06T12:44:52.048Z,29.5
2017-08-06T12:45:53.824Z,29.5
2017-08-06T12:46:55.621Z,29.4
2017-08-06T12:47:57.424Z,29.4
2017-08-06T12:48:58.872Z,29.4
2017-08-06T12:50:00.678Z,29.4
2017-08-06T12:51:02.126Z,29.4
2017-08-06T12:52:04.256Z,29.4
2017-08-06T12:53:06.058Z,29.5
2017-08-06T12:54:08.188Z,29.4
2017-08-06T12:55:09.640Z,29.4
2017-08-06T12:56:11.083Z,29.5
2017-08-06T12:57:12.538Z,29.5
2017-08-06T12:58:14.673Z,29.5
2017-08-06T12:59:16.805Z,29.5
2017-08-06T13:00:18.937Z,29.5
2017-08-06T13:01:20.720Z,29.5
2017-08-06T13:02:22.853Z,29.4
2017-08-06T13:03:24.994Z,29.4
2017-08-06T13:04:26.461Z,29.4
2017-08-06T13:05:28.263Z,29.4
2017-08-06T13:06:30.398Z,29.5
2017-08-06T13:07:32.180Z,29.4
2017-08-06T13:08:33.982Z,29.5
2017-08-06T13:09:35.785Z,29.5
2017-08-06T13:10:37.919Z,29.4
2017-08-06T13:11:39.726Z,29.5
2017-08-06T13:12:41.508Z,29.5
2017-08-06T13:13:43.307Z,29.5
2017-08-06T13:14:45.109Z,29.5
2017-08-06T13:15:46.910Z,29.4
2017-08-06T13:16:48.707Z,29.4
2017-08-06T13:17:50.564Z,29.5
2017-08-06T13:18:52.362Z,29.5
2017-08-06T13:19:53.490Z,29.5
2017-08-06T13:20:55.622Z,29.5
2017-08-06T13:21:57.072Z,29.5
2017-08-06T13:22:58.934Z,29.5
2017-08-06T13:24:00.385Z,29.5
2017-08-06T13:25:02.190Z,29.5
2017-08-06T13:26:03.637Z,29.4
2017-08-06T13:27:05.445Z,29.5
2017-08-06T13:28:07.580Z,29.5
2017-08-06T13:29:09.711Z,29.5
2017-08-06T13:30:11.510Z,29.5
2017-08-06T13:31:13.646Z,29.5
2017-08-06T13:32:15.447Z,29.5
2017-08-06T13:33:17.247Z,29.4
2017-08-06T13:34:19.384Z,29.4
2017-08-06T13:35:20.833Z,29.5
2017-08-06T13:36:22.305Z,29.4
2017-08-06T13:37:24.443Z,29.4
2017-08-06T13:38:26.241Z,29.4
2017-08-06T13:39:28.048Z,29.3
2017-08-06T13:40:30.180Z,29.4
2017-08-06T13:41:32.315Z,29.4
2017-08-06T13:42:34.448Z,29.4
2017-08-06T13:43:36.250Z,29.4
2017-08-06T13:44:38.386Z,29.4